TFFF

Martinique Aimé Césaire International Airport

Fort-de-France, Martinique
TAF TFFF 161700Z 1618/1718 12016KT 9999 SCT030 PROB30 TEMPO 1710/1718 4500 SHRA BKN018TCU
Issued Valid From Valid To
Jul-16 @ 17:00 UTC
(3 hours ago)
Jul-16 @ 18:00 UTC
(2 hours ago)
Jul-17 @ 18:00 UTC
(in 22 hours)
Jul-16 @ 18:00 to Jul-17 @ 18:00
TAF TFFF 161700Z 1618/1718 12016KT 9999 SCT030
Wind Visibility Clouds
120° at 16 knots 10,000+ meters
  • Scattered at 3,000' AGL
Temporary  (Probability 30%) Jul-17 @ 10:00 to Jul-17 @ 18:00
PROB30 TEMPO 1710/1718 4500 SHRA BKN018TCU
Visibility Clouds Conditions
4,506 meters
  • Broken at 1,800' AGL
  • Rain
TAF TFFF 161700Z 1618/1718 12016KT 9999 SCT030 PROB30 TEMPO 1710/1718 4500 SHRA BKN018TCU
Issued Jul-16 @ 17:00 UTC
(3 hours ago)
Valid From Jul-16 @ 18:00 UTC
(2 hours ago)
Valid To Jul-17 @ 18:00 UTC
(in 22 hours)
Jul-16 @ 18:00 - Jul-17 @ 18:00
Wind Visibility
120° at 16 knots 10,000+ meters
Clouds
  • Scattered at 3,000' AGL
Probability 30% Temporary Jul-17 @ 10:00 - Jul-17 @ 18:00
Clouds
  • Broken at 1,800' AGL
Conditions
  • Rain